sensor_id;sensor_type;location;lat;lon;timestamp;P1;durP1;ratioP1;P2;durP2;ratioP2
15528;SDS011;7866;52.280;9.500;2022-11-20T00:00:07;4.00;;;3.70;;
15528;SDS011;7866;52.280;9.500;2022-11-20T00:05:09;4.77;;;4.27;;
15528;SDS011;7866;52.280;9.500;2022-11-20T00:10:11;3.90;;;3.60;;
15528;SDS011;7866;52.280;9.500;2022-11-20T00:15:14;4.43;;;4.03;;
15528;SDS011;7866;52.280;9.500;2022-11-20T00:20:16;4.30;;;3.90;;
15528;SDS011;7866;52.280;9.500;2022-11-20T00:25:18;4.37;;;3.97;;
15528;SDS011;7866;52.280;9.500;2022-11-20T00:30:21;3.67;;;3.37;;
15528;SDS011;7866;52.280;9.500;2022-11-20T00:35:23;3.63;;;3.33;;
15528;SDS011;7866;52.280;9.500;2022-11-20T00:40:24;3.00;;;2.77;;
15528;SDS011;7866;52.280;9.500;2022-11-20T00:45:28;3.97;;;3.30;;
15528;SDS011;7866;52.280;9.500;2022-11-20T00:50:29;3.50;;;3.20;;
15528;SDS011;7866;52.280;9.500;2022-11-20T00:55:31;3.60;;;3.30;;
15528;SDS011;7866;52.280;9.500;2022-11-20T01:00:34;3.30;;;3.00;;
15528;SDS011;7866;52.280;9.500;2022-11-20T01:05:36;4.07;;;3.27;;
15528;SDS011;7866;52.280;9.500;2022-11-20T01:10:37;3.57;;;3.27;;
15528;SDS011;7866;52.280;9.500;2022-11-20T01:15:40;2.83;;;2.63;;
15528;SDS011;7866;52.280;9.500;2022-11-20T01:20:42;2.50;;;2.30;;
15528;SDS011;7866;52.280;9.500;2022-11-20T01:25:44;2.37;;;2.27;;
15528;SDS011;7866;52.280;9.500;2022-11-20T01:30:47;2.43;;;2.30;;
15528;SDS011;7866;52.280;9.500;2022-11-20T01:35:48;2.37;;;2.23;;
15528;SDS011;7866;52.280;9.500;2022-11-20T01:40:53;2.17;;;2.07;;
15528;SDS011;7866;52.280;9.500;2022-11-20T01:46:05;2.50;;;2.30;;
15528;SDS011;7866;52.280;9.500;2022-11-20T01:51:17;3.07;;;2.77;;
15528;SDS011;7866;52.280;9.500;2022-11-20T01:56:22;2.67;;;2.47;;
15528;SDS011;7866;52.280;9.500;2022-11-20T02:01:25;3.07;;;2.77;;
15528;SDS011;7866;52.280;9.500;2022-11-20T02:06:28;3.23;;;2.93;;
15528;SDS011;7866;52.280;9.500;2022-11-20T02:11:31;3.03;;;2.83;;
15528;SDS011;7866;52.280;9.500;2022-11-20T02:16:35;3.17;;;2.87;;
15528;SDS011;7866;52.280;9.500;2022-11-20T02:21:39;3.67;;;3.20;;
15528;SDS011;7866;52.280;9.500;2022-11-20T02:26:48;4.00;;;3.40;;
15528;SDS011;7866;52.280;9.500;2022-11-20T02:31:53;2.97;;;2.77;;
15528;SDS011;7866;52.280;9.500;2022-11-20T02:36:56;3.13;;;2.93;;
15528;SDS011;7866;52.280;9.500;2022-11-20T02:42:01;3.67;;;3.37;;
15528;SDS011;7866;52.280;9.500;2022-11-20T02:47:03;4.67;;;4.17;;
15528;SDS011;7866;52.280;9.500;2022-11-20T02:52:05;3.47;;;3.17;;
15528;SDS011;7866;52.280;9.500;2022-11-20T02:57:07;4.23;;;3.20;;
15528;SDS011;7866;52.280;9.500;2022-11-20T03:02:09;3.20;;;3.00;;
15528;SDS011;7866;52.280;9.500;2022-11-20T03:07:11;3.10;;;2.80;;
15528;SDS011;7866;52.280;9.500;2022-11-20T03:12:14;2.93;;;2.73;;
15528;SDS011;7866;52.280;9.500;2022-11-20T03:17:16;4.33;;;3.40;;
15528;SDS011;7866;52.280;9.500;2022-11-20T03:22:17;3.80;;;3.10;;
15528;SDS011;7866;52.280;9.500;2022-11-20T03:27:20;3.77;;;3.47;;
15528;SDS011;7866;52.280;9.500;2022-11-20T03:32:22;3.40;;;3.10;;
15528;SDS011;7866;52.280;9.500;2022-11-20T03:37:23;5.30;;;3.63;;
15528;SDS011;7866;52.280;9.500;2022-11-20T03:42:26;3.87;;;3.50;;
15528;SDS011;7866;52.280;9.500;2022-11-20T03:47:47;3.97;;;3.23;;
15528;SDS011;7866;52.280;9.500;2022-11-20T03:52:48;3.17;;;2.97;;
15528;SDS011;7866;52.280;9.500;2022-11-20T03:57:51;3.50;;;3.07;;
15528;SDS011;7866;52.280;9.500;2022-11-20T04:02:53;3.50;;;3.20;;
15528;SDS011;7866;52.280;9.500;2022-11-20T04:07:55;4.20;;;3.80;;
15528;SDS011;7866;52.280;9.500;2022-11-20T04:12:58;4.33;;;3.87;;
15528;SDS011;7866;52.280;9.500;2022-11-20T04:17:59;5.03;;;4.60;;
15528;SDS011;7866;52.280;9.500;2022-11-20T04:23:01;5.10;;;4.60;;
15528;SDS011;7866;52.280;9.500;2022-11-20T04:28:04;4.60;;;4.20;;
15528;SDS011;7866;52.280;9.500;2022-11-20T04:33:06;4.83;;;4.10;;
15528;SDS011;7866;52.280;9.500;2022-11-20T04:38:07;3.47;;;3.17;;
15528;SDS011;7866;52.280;9.500;2022-11-20T04:43:10;4.03;;;3.47;;
15528;SDS011;7866;52.280;9.500;2022-11-20T04:48:12;4.43;;;3.80;;
15528;SDS011;7866;52.280;9.500;2022-11-20T04:53:13;3.70;;;3.40;;
15528;SDS011;7866;52.280;9.500;2022-11-20T04:58:16;3.80;;;3.40;;
15528;SDS011;7866;52.280;9.500;2022-11-20T05:03:18;3.73;;;3.37;;
15528;SDS011;7866;52.280;9.500;2022-11-20T05:08:20;3.43;;;3.13;;
15528;SDS011;7866;52.280;9.500;2022-11-20T05:13:23;2.90;;;2.70;;
15528;SDS011;7866;52.280;9.500;2022-11-20T05:18:24;3.03;;;2.73;;
15528;SDS011;7866;52.280;9.500;2022-11-20T05:23:26;2.90;;;2.70;;
15528;SDS011;7866;52.280;9.500;2022-11-20T05:28:31;2.90;;;2.70;;
15528;SDS011;7866;52.280;9.500;2022-11-20T05:33:33;3.20;;;2.57;;
15528;SDS011;7866;52.280;9.500;2022-11-20T05:38:36;2.60;;;2.40;;
15528;SDS011;7866;52.280;9.500;2022-11-20T05:43:40;3.37;;;3.07;;
15528;SDS011;7866;52.280;9.500;2022-11-20T05:48:43;4.03;;;3.73;;
15528;SDS011;7866;52.280;9.500;2022-11-20T05:53:45;3.90;;;3.60;;
15528;SDS011;7866;52.280;9.500;2022-11-20T05:58:48;3.50;;;3.20;;
15528;SDS011;7866;52.280;9.500;2022-11-20T06:03:50;3.50;;;3.20;;
15528;SDS011;7866;52.280;9.500;2022-11-20T06:08:52;5.30;;;4.13;;
15528;SDS011;7866;52.280;9.500;2022-11-20T06:13:55;6.67;;;5.97;;
15528;SDS011;7866;52.280;9.500;2022-11-20T06:18:57;18.03;;;12.27;;
15528;SDS011;7866;52.280;9.500;2022-11-20T06:23:59;8.77;;;6.57;;
15528;SDS011;7866;52.280;9.500;2022-11-20T06:29:02;5.83;;;5.20;;
15528;SDS011;7866;52.280;9.500;2022-11-20T06:34:04;4.13;;;3.83;;
15528;SDS011;7866;52.280;9.500;2022-11-20T06:39:06;5.80;;;5.17;;
15528;SDS011;7866;52.280;9.500;2022-11-20T06:44:09;5.63;;;5.07;;
15528;SDS011;7866;52.280;9.500;2022-11-20T06:49:11;5.03;;;4.60;;
15528;SDS011;7866;52.280;9.500;2022-11-20T06:54:13;4.90;;;4.50;;
15528;SDS011;7866;52.280;9.500;2022-11-20T06:59:16;4.30;;;3.90;;
15528;SDS011;7866;52.280;9.500;2022-11-20T07:04:17;4.37;;;4.03;;
15528;SDS011;7866;52.280;9.500;2022-11-20T07:09:19;5.30;;;4.33;;
15528;SDS011;7866;52.280;9.500;2022-11-20T07:14:22;4.90;;;4.50;;
15528;SDS011;7866;52.280;9.500;2022-11-20T07:19:23;5.93;;;4.67;;
15528;SDS011;7866;52.280;9.500;2022-11-20T07:24:25;6.53;;;4.80;;
15528;SDS011;7866;52.280;9.500;2022-11-20T07:29:28;5.43;;;4.53;;
15528;SDS011;7866;52.280;9.500;2022-11-20T07:34:30;4.83;;;4.40;;
15528;SDS011;7866;52.280;9.500;2022-11-20T07:39:31;5.07;;;4.57;;
15528;SDS011;7866;52.280;9.500;2022-11-20T07:44:35;5.50;;;4.73;;
15528;SDS011;7866;52.280;9.500;2022-11-20T07:49:36;5.43;;;4.97;;
15528;SDS011;7866;52.280;9.500;2022-11-20T07:54:38;6.37;;;5.77;;
15528;SDS011;7866;52.280;9.500;2022-11-20T07:59:41;6.30;;;5.70;;
15528;SDS011;7866;52.280;9.500;2022-11-20T08:04:43;5.93;;;5.33;;
15528;SDS011;7866;52.280;9.500;2022-11-20T08:09:44;6.00;;;5.40;;
15528;SDS011;7866;52.280;9.500;2022-11-20T08:14:47;8.17;;;7.37;;
15528;SDS011;7866;52.280;9.500;2022-11-20T08:19:49;8.47;;;6.97;;
15528;SDS011;7866;52.280;9.500;2022-11-20T08:24:50;10.57;;;7.87;;
15528;SDS011;7866;52.280;9.500;2022-11-20T08:29:53;7.17;;;6.37;;
15528;SDS011;7866;52.280;9.500;2022-11-20T08:34:55;5.93;;;5.30;;
15528;SDS011;7866;52.280;9.500;2022-11-20T08:39:57;6.77;;;6.07;;
15528;SDS011;7866;52.280;9.500;2022-11-20T08:45:00;22.17;;;16.47;;
15528;SDS011;7866;52.280;9.500;2022-11-20T08:50:01;7.60;;;6.73;;
15528;SDS011;7866;52.280;9.500;2022-11-20T08:55:04;7.13;;;6.10;;
15528;SDS011;7866;52.280;9.500;2022-11-20T09:00:09;6.37;;;5.77;;
15528;SDS011;7866;52.280;9.500;2022-11-20T09:05:12;7.27;;;6.17;;
15528;SDS011;7866;52.280;9.500;2022-11-20T09:10:13;6.17;;;5.57;;
15528;SDS011;7866;52.280;9.500;2022-11-20T09:15:17;7.67;;;6.27;;
15528;SDS011;7866;52.280;9.500;2022-11-20T09:20:19;6.70;;;6.10;;
15528;SDS011;7866;52.280;9.500;2022-11-20T09:25:21;6.63;;;6.03;;
15528;SDS011;7866;52.280;9.500;2022-11-20T09:30:24;10.07;;;7.50;;
15528;SDS011;7866;52.280;9.500;2022-11-20T09:35:26;6.70;;;6.10;;
15528;SDS011;7866;52.280;9.500;2022-11-20T09:40:28;6.80;;;6.10;;
15528;SDS011;7866;52.280;9.500;2022-11-20T09:45:37;7.00;;;6.17;;
15528;SDS011;7866;52.280;9.500;2022-11-20T09:50:45;10.07;;;6.30;;
15528;SDS011;7866;52.280;9.500;2022-11-20T09:55:53;8.40;;;7.50;;
15528;SDS011;7866;52.280;9.500;2022-11-20T10:01:08;7.97;;;7.17;;
15528;SDS011;7866;52.280;9.500;2022-11-20T10:06:15;7.60;;;6.20;;
15528;SDS011;7866;52.280;9.500;2022-11-20T10:11:21;6.77;;;6.17;;
15528;SDS011;7866;52.280;9.500;2022-11-20T10:16:32;6.27;;;5.67;;
15528;SDS011;7866;52.280;9.500;2022-11-20T10:21:47;7.43;;;6.63;;
15528;SDS011;7866;52.280;9.500;2022-11-20T10:27:02;7.10;;;5.93;;
15528;SDS011;7866;52.280;9.500;2022-11-20T10:32:17;7.43;;;6.70;;
15528;SDS011;7866;52.280;9.500;2022-11-20T10:37:25;8.33;;;6.13;;
15528;SDS011;7866;52.280;9.500;2022-11-20T10:42:29;6.47;;;5.97;;
15528;SDS011;7866;52.280;9.500;2022-11-20T10:47:38;7.60;;;6.77;;
15528;SDS011;7866;52.280;9.500;2022-11-20T10:52:42;8.17;;;7.37;;
15528;SDS011;7866;52.280;9.500;2022-11-20T10:57:54;7.13;;;6.43;;
15528;SDS011;7866;52.280;9.500;2022-11-20T11:03:07;11.50;;;7.00;;
15528;SDS011;7866;52.280;9.500;2022-11-20T11:08:23;8.60;;;7.00;;
15528;SDS011;7866;52.280;9.500;2022-11-20T11:13:30;8.10;;;7.40;;
15528;SDS011;7866;52.280;9.500;2022-11-20T11:18:33;8.20;;;7.40;;
15528;SDS011;7866;52.280;9.500;2022-11-20T11:23:36;8.40;;;7.60;;
15528;SDS011;7866;52.280;9.500;2022-11-20T11:28:40;8.00;;;7.20;;
15528;SDS011;7866;52.280;9.500;2022-11-20T11:33:43;8.33;;;7.53;;
15528;SDS011;7866;52.280;9.500;2022-11-20T11:38:45;7.83;;;7.13;;
15528;SDS011;7866;52.280;9.500;2022-11-20T11:43:50;9.30;;;7.37;;
15528;SDS011;7866;52.280;9.500;2022-11-20T11:49:15;7.10;;;6.50;;
15528;SDS011;7866;52.280;9.500;2022-11-20T11:54:19;7.53;;;6.77;;
15528;SDS011;7866;52.280;9.500;2022-11-20T11:59:26;6.73;;;6.10;;
15528;SDS011;7866;52.280;9.500;2022-11-20T12:04:37;7.57;;;6.77;;
15528;SDS011;7866;52.280;9.500;2022-11-20T12:09:46;7.60;;;6.90;;
15528;SDS011;7866;52.280;9.500;2022-11-20T12:14:53;8.90;;;7.40;;
15528;SDS011;7866;52.280;9.500;2022-11-20T12:19:58;8.67;;;7.87;;
15528;SDS011;7866;52.280;9.500;2022-11-20T12:25:01;8.47;;;7.57;;
15528;SDS011;7866;52.280;9.500;2022-11-20T12:30:08;8.63;;;7.83;;
15528;SDS011;7866;52.280;9.500;2022-11-20T12:35:17;9.13;;;8.23;;
15528;SDS011;7866;52.280;9.500;2022-11-20T12:40:34;10.00;;;9.00;;
15528;SDS011;7866;52.280;9.500;2022-11-20T12:45:46;10.50;;;9.17;;
15528;SDS011;7866;52.280;9.500;2022-11-20T12:51:12;10.23;;;9.03;;
15528;SDS011;7866;52.280;9.500;2022-11-20T12:56:27;9.83;;;8.83;;
15528;SDS011;7866;52.280;9.500;2022-11-20T13:01:40;10.40;;;8.60;;
15528;SDS011;7866;52.280;9.500;2022-11-20T13:06:51;10.30;;;9.30;;
15528;SDS011;7866;52.280;9.500;2022-11-20T13:11:55;11.63;;;9.17;;
15528;SDS011;7866;52.280;9.500;2022-11-20T13:17:08;9.70;;;8.63;;
15528;SDS011;7866;52.280;9.500;2022-11-20T13:22:23;10.50;;;9.20;;
15528;SDS011;7866;52.280;9.500;2022-11-20T13:27:26;9.80;;;8.80;;
15528;SDS011;7866;52.280;9.500;2022-11-20T13:32:30;10.73;;;9.30;;
15528;SDS011;7866;52.280;9.500;2022-11-20T13:37:35;12.53;;;9.20;;
15528;SDS011;7866;52.280;9.500;2022-11-20T13:42:38;10.63;;;9.53;;
15528;SDS011;7866;52.280;9.500;2022-11-20T13:47:47;10.13;;;9.13;;
15528;SDS011;7866;52.280;9.500;2022-11-20T13:52:52;12.20;;;9.97;;
15528;SDS011;7866;52.280;9.500;2022-11-20T13:58:03;10.90;;;9.63;;
15528;SDS011;7866;52.280;9.500;2022-11-20T14:03:17;11.17;;;9.97;;
15528;SDS011;7866;52.280;9.500;2022-11-20T14:08:25;10.77;;;9.47;;
15528;SDS011;7866;52.280;9.500;2022-11-20T14:13:32;10.17;;;9.17;;
15528;SDS011;7866;52.280;9.500;2022-11-20T14:18:34;15.37;;;13.47;;
15528;SDS011;7866;52.280;9.500;2022-11-20T14:23:37;10.90;;;9.77;;
15528;SDS011;7866;52.280;9.500;2022-11-20T14:28:38;10.17;;;9.00;;
15528;SDS011;7866;52.280;9.500;2022-11-20T14:33:41;9.13;;;8.23;;
15528;SDS011;7866;52.280;9.500;2022-11-20T14:38:44;8.67;;;7.50;;
15528;SDS011;7866;52.280;9.500;2022-11-20T14:43:46;12.23;;;9.17;;
15528;SDS011;7866;52.280;9.500;2022-11-20T14:48:51;9.40;;;8.17;;
15528;SDS011;7866;52.280;9.500;2022-11-20T14:53:57;9.47;;;8.10;;
15528;SDS011;7866;52.280;9.500;2022-11-20T14:59:09;7.90;;;7.10;;
15528;SDS011;7866;52.280;9.500;2022-11-20T15:04:11;7.53;;;6.83;;
15528;SDS011;7866;52.280;9.500;2022-11-20T15:09:14;8.27;;;7.47;;
15528;SDS011;7866;52.280;9.500;2022-11-20T15:14:17;15.27;;;12.00;;
15528;SDS011;7866;52.280;9.500;2022-11-20T15:19:19;9.30;;;8.40;;
15528;SDS011;7866;52.280;9.500;2022-11-20T15:24:23;10.40;;;9.33;;
15528;SDS011;7866;52.280;9.500;2022-11-20T15:29:25;8.90;;;7.87;;
15528;SDS011;7866;52.280;9.500;2022-11-20T15:34:27;7.57;;;6.83;;
15528;SDS011;7866;52.280;9.500;2022-11-20T15:39:30;8.10;;;7.20;;
15528;SDS011;7866;52.280;9.500;2022-11-20T15:44:32;8.00;;;7.20;;
15528;SDS011;7866;52.280;9.500;2022-11-20T15:49:33;8.43;;;7.53;;
15528;SDS011;7866;52.280;9.500;2022-11-20T15:54:38;8.30;;;7.50;;
15528;SDS011;7866;52.280;9.500;2022-11-20T15:59:39;7.50;;;6.80;;
15528;SDS011;7866;52.280;9.500;2022-11-20T16:04:41;8.20;;;7.40;;
15528;SDS011;7866;52.280;9.500;2022-11-20T16:09:44;8.40;;;7.13;;
15528;SDS011;7866;52.280;9.500;2022-11-20T16:14:46;8.13;;;7.37;;
15528;SDS011;7866;52.280;9.500;2022-11-20T16:20:05;7.97;;;7.17;;
15528;SDS011;7866;52.280;9.500;2022-11-20T16:25:12;8.07;;;7.27;;
15528;SDS011;7866;52.280;9.500;2022-11-20T16:30:14;7.60;;;6.90;;
15528;SDS011;7866;52.280;9.500;2022-11-20T16:35:16;8.07;;;6.87;;
15528;SDS011;7866;52.280;9.500;2022-11-20T16:40:19;7.60;;;6.80;;
15528;SDS011;7866;52.280;9.500;2022-11-20T16:45:20;7.73;;;6.93;;
15528;SDS011;7866;52.280;9.500;2022-11-20T16:50:22;7.20;;;6.60;;
15528;SDS011;7866;52.280;9.500;2022-11-20T16:55:25;7.40;;;6.77;;
15528;SDS011;7866;52.280;9.500;2022-11-20T17:00:27;7.63;;;6.60;;
15528;SDS011;7866;52.280;9.500;2022-11-20T17:05:28;8.00;;;7.20;;
15528;SDS011;7866;52.280;9.500;2022-11-20T17:10:32;7.50;;;6.70;;
15528;SDS011;7866;52.280;9.500;2022-11-20T17:15:33;7.17;;;6.47;;
15528;SDS011;7866;52.280;9.500;2022-11-20T17:20:35;6.20;;;5.60;;
15528;SDS011;7866;52.280;9.500;2022-11-20T17:25:38;6.67;;;6.07;;
15528;SDS011;7866;52.280;9.500;2022-11-20T17:30:39;6.93;;;6.20;;
15528;SDS011;7866;52.280;9.500;2022-11-20T17:35:41;6.33;;;5.73;;
15528;SDS011;7866;52.280;9.500;2022-11-20T17:40:44;9.30;;;8.13;;
15528;SDS011;7866;52.280;9.500;2022-11-20T17:45:46;11.10;;;10.00;;
15528;SDS011;7866;52.280;9.500;2022-11-20T17:50:47;21.80;;;18.17;;
15528;SDS011;7866;52.280;9.500;2022-11-20T17:55:55;20.73;;;17.53;;
15528;SDS011;7866;52.280;9.500;2022-11-20T18:01:14;19.90;;;15.03;;
15528;SDS011;7866;52.280;9.500;2022-11-20T18:06:17;14.83;;;12.67;;
15528;SDS011;7866;52.280;9.500;2022-11-20T18:11:22;13.70;;;11.00;;
15528;SDS011;7866;52.280;9.500;2022-11-20T18:16:26;11.77;;;10.53;;
15528;SDS011;7866;52.280;9.500;2022-11-20T18:21:29;16.17;;;13.70;;
15528;SDS011;7866;52.280;9.500;2022-11-20T18:26:33;19.57;;;15.73;;
15528;SDS011;7866;52.280;9.500;2022-11-20T18:31:35;19.50;;;15.23;;
15528;SDS011;7866;52.280;9.500;2022-11-20T18:36:37;19.60;;;15.37;;
15528;SDS011;7866;52.280;9.500;2022-11-20T18:41:40;18.50;;;12.53;;
15528;SDS011;7866;52.280;9.500;2022-11-20T18:47:00;13.23;;;11.13;;
15528;SDS011;7866;52.280;9.500;2022-11-20T18:52:01;13.00;;;9.97;;
15528;SDS011;7866;52.280;9.500;2022-11-20T18:57:05;17.53;;;15.73;;
15528;SDS011;7866;52.280;9.500;2022-11-20T19:02:09;9.80;;;8.57;;
15528;SDS011;7866;52.280;9.500;2022-11-20T19:07:12;7.93;;;7.13;;
15528;SDS011;7866;52.280;9.500;2022-11-20T19:12:16;8.10;;;6.87;;
15528;SDS011;7866;52.280;9.500;2022-11-20T19:17:18;8.33;;;7.53;;
15528;SDS011;7866;52.280;9.500;2022-11-20T19:22:19;8.33;;;7.50;;
15528;SDS011;7866;52.280;9.500;2022-11-20T19:27:22;9.33;;;8.33;;
15528;SDS011;7866;52.280;9.500;2022-11-20T19:32:24;10.37;;;9.10;;
15528;SDS011;7866;52.280;9.500;2022-11-20T19:37:26;13.33;;;10.50;;
15528;SDS011;7866;52.280;9.500;2022-11-20T19:42:29;9.60;;;8.60;;
15528;SDS011;7866;52.280;9.500;2022-11-20T19:47:30;8.77;;;7.70;;
15528;SDS011;7866;52.280;9.500;2022-11-20T19:52:32;8.57;;;7.47;;
15528;SDS011;7866;52.280;9.500;2022-11-20T19:57:35;8.40;;;7.50;;
15528;SDS011;7866;52.280;9.500;2022-11-20T20:02:37;10.10;;;8.17;;
15528;SDS011;7866;52.280;9.500;2022-11-20T20:07:38;9.67;;;8.67;;
15528;SDS011;7866;52.280;9.500;2022-11-20T20:12:41;11.90;;;10.47;;
15528;SDS011;7866;52.280;9.500;2022-11-20T20:17:43;13.63;;;10.73;;
15528;SDS011;7866;52.280;9.500;2022-11-20T20:22:45;12.67;;;10.80;;
15528;SDS011;7866;52.280;9.500;2022-11-20T20:27:48;11.00;;;9.70;;
15528;SDS011;7866;52.280;9.500;2022-11-20T20:32:49;10.47;;;9.27;;
15528;SDS011;7866;52.280;9.500;2022-11-20T20:37:51;10.80;;;9.40;;
15528;SDS011;7866;52.280;9.500;2022-11-20T20:42:54;15.00;;;11.27;;
15528;SDS011;7866;52.280;9.500;2022-11-20T20:47:56;10.07;;;9.00;;
15528;SDS011;7866;52.280;9.500;2022-11-20T20:52:57;9.07;;;8.10;;
15528;SDS011;7866;52.280;9.500;2022-11-20T20:58:00;9.70;;;8.13;;
15528;SDS011;7866;52.280;9.500;2022-11-20T21:03:02;10.13;;;9.07;;
15528;SDS011;7866;52.280;9.500;2022-11-20T21:08:04;9.90;;;8.90;;
15528;SDS011;7866;52.280;9.500;2022-11-20T21:13:25;9.53;;;8.47;;
15528;SDS011;7866;52.280;9.500;2022-11-20T21:18:27;10.17;;;9.07;;
15528;SDS011;7866;52.280;9.500;2022-11-20T21:23:29;10.60;;;9.50;;
15528;SDS011;7866;52.280;9.500;2022-11-20T21:28:33;10.80;;;9.70;;
15528;SDS011;7866;52.280;9.500;2022-11-20T21:33:36;11.17;;;10.03;;
15528;SDS011;7866;52.280;9.500;2022-11-20T21:38:39;11.33;;;10.13;;
15528;SDS011;7866;52.280;9.500;2022-11-20T21:43:42;11.87;;;9.93;;
15528;SDS011;7866;52.280;9.500;2022-11-20T21:48:44;10.90;;;9.80;;
15528;SDS011;7866;52.280;9.500;2022-11-20T21:53:47;11.33;;;10.13;;
15528;SDS011;7866;52.280;9.500;2022-11-20T21:58:51;10.73;;;9.27;;
15528;SDS011;7866;52.280;9.500;2022-11-20T22:03:55;10.63;;;9.53;;
15528;SDS011;7866;52.280;9.500;2022-11-20T22:08:58;11.40;;;10.20;;
15528;SDS011;7866;52.280;9.500;2022-11-20T22:14:01;11.03;;;9.77;;
15528;SDS011;7866;52.280;9.500;2022-11-20T22:19:21;12.07;;;10.37;;
15528;SDS011;7866;52.280;9.500;2022-11-20T22:24:23;12.80;;;10.60;;
15528;SDS011;7866;52.280;9.500;2022-11-20T22:29:27;12.43;;;10.63;;
15528;SDS011;7866;52.280;9.500;2022-11-20T22:34:29;13.87;;;11.10;;
15528;SDS011;7866;52.280;9.500;2022-11-20T22:39:31;13.03;;;9.93;;
15528;SDS011;7866;52.280;9.500;2022-11-20T22:44:34;13.23;;;11.10;;
15528;SDS011;7866;52.280;9.500;2022-11-20T22:49:36;13.20;;;11.77;;
15528;SDS011;7866;52.280;9.500;2022-11-20T22:54:37;13.50;;;11.00;;
15528;SDS011;7866;52.280;9.500;2022-11-20T22:59:40;13.33;;;11.23;;
15528;SDS011;7866;52.280;9.500;2022-11-20T23:04:42;14.07;;;11.60;;
15528;SDS011;7866;52.280;9.500;2022-11-20T23:09:44;13.10;;;11.20;;
15528;SDS011;7866;52.280;9.500;2022-11-20T23:14:47;13.53;;;11.63;;
15528;SDS011;7866;52.280;9.500;2022-11-20T23:19:49;12.93;;;11.33;;
15528;SDS011;7866;52.280;9.500;2022-11-20T23:24:51;12.73;;;11.13;;
15528;SDS011;7866;52.280;9.500;2022-11-20T23:29:54;14.00;;;11.43;;
15528;SDS011;7866;52.280;9.500;2022-11-20T23:34:58;13.17;;;11.40;;
15528;SDS011;7866;52.280;9.500;2022-11-20T23:39:59;13.70;;;11.30;;
15528;SDS011;7866;52.280;9.500;2022-11-20T23:45:02;13.67;;;11.87;;
15528;SDS011;7866;52.280;9.500;2022-11-20T23:50:04;15.47;;;11.90;;
15528;SDS011;7866;52.280;9.500;2022-11-20T23:55:07;13.63;;;11.27;;
